createdAt,value
2018-09-19T00:04:22.845Z,13.48
2018-09-19T00:09:16.081Z,13.34
2018-09-19T00:14:09.924Z,13.44
2018-09-19T00:19:03.143Z,13.41
2018-09-19T00:23:56.216Z,13.55
2018-09-19T00:28:49.280Z,13.52
2018-09-19T00:33:42.368Z,13.64
2018-09-19T00:38:35.659Z,13.51
2018-09-19T00:43:29.664Z,13.58
2018-09-19T00:48:22.733Z,13.59
2018-09-19T00:53:15.937Z,13.72
2018-09-19T00:58:09.039Z,13.47
2018-09-19T01:03:02.168Z,13.57
2018-09-19T01:07:55.367Z,13.51
2018-09-19T01:12:48.450Z,13.50
2018-09-19T01:17:41.554Z,13.48
2018-09-19T01:22:34.585Z,13.54
2018-09-19T01:27:27.722Z,13.53
2018-09-19T01:32:20.757Z,13.46
2018-09-19T01:37:13.808Z,13.25
2018-09-19T01:42:07.136Z,13.18
2018-09-19T01:47:00.429Z,13.23
2018-09-19T01:51:54.471Z,13.25
2018-09-19T01:56:47.727Z,13.22
2018-09-19T02:01:40.874Z,13.22
2018-09-19T02:06:33.994Z,13.23
2018-09-19T02:11:27.182Z,13.22
2018-09-19T02:16:22.612Z,13.08
2018-09-19T02:21:15.809Z,13.04
2018-09-19T02:26:08.833Z,12.90
2018-09-19T02:31:01.867Z,13.07
2018-09-19T02:35:55.078Z,13.12
2018-09-19T02:40:48.497Z,13.52
2018-09-19T02:45:41.567Z,13.95
2018-09-19T02:50:34.596Z,14.16
2018-09-19T02:55:27.734Z,14.12
2018-09-19T03:00:21.008Z,13.93
2018-09-19T03:05:14.262Z,13.79
2018-09-19T03:10:07.395Z,13.89
2018-09-19T03:15:00.543Z,13.91
2018-09-19T03:19:53.705Z,14.05
2018-09-19T03:24:46.880Z,13.96
2018-09-19T03:29:39.972Z,13.93
2018-09-19T03:34:33.146Z,13.96
2018-09-19T03:39:26.302Z,13.98
2018-09-19T03:44:19.219Z,14.15
2018-09-19T03:49:12.386Z,14.06
2018-09-19T03:54:05.618Z,13.92
2018-09-19T03:58:59.435Z,14.00
2018-09-19T04:03:53.518Z,14.06
2018-09-19T04:08:47.354Z,14.03
2018-09-19T04:13:41.180Z,14.12
2018-09-19T04:18:34.956Z,14.19
2018-09-19T04:23:29.506Z,14.17
2018-09-19T04:28:24.480Z,14.30
2018-09-19T04:33:17.618Z,14.20
2018-09-19T04:38:12.702Z,14.27
2018-09-19T04:43:08.006Z,14.41
2018-09-19T04:48:06.276Z,14.53
2018-09-19T04:53:00.724Z,14.76
2018-09-19T04:57:59.797Z,14.85
2018-09-19T05:02:57.401Z,14.91
2018-09-19T05:07:51.108Z,14.90
2018-09-19T05:12:45.599Z,15.10
2018-09-19T05:17:39.995Z,15.25
2018-09-19T05:22:38.310Z,15.41
2018-09-19T05:27:33.932Z,15.48
2018-09-19T05:32:30.203Z,15.41
2018-09-19T05:37:24.301Z,15.48
2018-09-19T05:42:17.852Z,15.67
2018-09-19T05:47:11.595Z,15.71
2018-09-19T05:52:08.651Z,15.71
2018-09-19T05:57:02.975Z,15.88
2018-09-19T06:01:57.487Z,15.98
2018-09-19T06:06:53.442Z,16.14
2018-09-19T06:11:47.767Z,16.37
2018-09-19T06:16:41.293Z,16.62
2018-09-19T06:21:35.860Z,16.93
2018-09-19T06:26:33.346Z,17.21
2018-09-19T06:31:29.003Z,17.43
2018-09-19T06:36:22.816Z,17.70
2018-09-19T06:41:16.854Z,18.10
2018-09-19T06:46:14.963Z,18.27
2018-09-19T06:51:09.614Z,18.48
2018-09-19T06:56:03.754Z,18.70
2018-09-19T07:00:56.884Z,18.77
2018-09-19T07:05:51.617Z,18.89
2018-09-19T07:10:46.187Z,18.76
2018-09-19T07:15:39.839Z,18.64
2018-09-19T07:20:33.148Z,18.85
2018-09-19T07:25:28.915Z,19.31
2018-09-19T07:30:24.824Z,19.38
2018-09-19T07:35:22.421Z,19.48
2018-09-19T07:40:15.761Z,19.55
2018-09-19T07:45:12.033Z,19.72
2018-09-19T07:50:05.639Z,19.94
2018-09-19T07:54:59.097Z,20.27
2018-09-19T07:59:56.365Z,20.46
2018-09-19T08:04:50.298Z,20.75
2018-09-19T08:09:44.296Z,20.90
2018-09-19T08:14:37.907Z,20.71
2018-09-19T08:19:32.740Z,20.93
2018-09-19T08:24:26.548Z,20.72
2018-09-19T08:29:19.759Z,20.86
2018-09-19T08:34:13.720Z,21.14
2018-09-19T08:39:08.705Z,21.08
2018-09-19T08:44:02.296Z,21.14
2018-09-19T08:48:55.424Z,21.01
2018-09-19T08:53:53.514Z,20.76
2018-09-19T08:58:47.295Z,20.51
2018-09-19T09:03:40.831Z,20.67
2018-09-19T09:08:35.453Z,20.76
2018-09-19T09:13:29.639Z,20.86
2018-09-19T09:18:23.877Z,21.03
2018-09-19T09:23:18.285Z,21.31
2018-09-19T09:28:18.833Z,21.48
2018-09-19T09:33:12.218Z,21.47
2018-09-19T09:38:07.412Z,21.29
2018-09-19T09:43:00.585Z,21.36
2018-09-19T09:47:55.006Z,21.57
2018-09-19T09:52:49.595Z,21.57
2018-09-19T09:57:42.818Z,21.78
2018-09-19T10:02:40.110Z,21.67
2018-09-19T10:07:35.518Z,21.93
2018-09-19T10:12:29.270Z,22.19
2018-09-19T10:17:23.250Z,22.09
2018-09-19T10:22:16.771Z,22.17
2018-09-19T10:27:10.979Z,22.33
2018-09-19T10:32:04.203Z,22.60
2018-09-19T10:36:57.294Z,22.41
2018-09-19T10:41:50.692Z,22.32
2018-09-19T10:46:44.531Z,22.49
2018-09-19T10:51:40.428Z,22.70
2018-09-19T10:56:34.307Z,22.75
2018-09-19T11:01:27.645Z,22.92
2018-09-19T11:06:20.994Z,23.17
2018-09-19T11:11:14.187Z,23.09
2018-09-19T11:16:14.956Z,23.03
2018-09-19T11:21:09.340Z,23.16
2018-09-19T11:26:06.602Z,23.35
2018-09-19T11:31:01.592Z,23.37
2018-09-19T11:36:00.714Z,23.59
2018-09-19T11:40:55.947Z,23.73
2018-09-19T11:45:54.060Z,23.68
2018-09-19T11:50:48.351Z,23.74
2018-09-19T11:55:45.267Z,23.79
2018-09-19T12:00:42.377Z,23.73
2018-09-19T12:05:36.739Z,23.65
2018-09-19T12:10:31.099Z,23.87
2018-09-19T12:15:24.968Z,23.80
2018-09-19T12:20:19.680Z,23.86
2018-09-19T12:25:17.688Z,23.85
2018-09-19T12:30:13.988Z,24.14
2018-09-19T12:35:07.070Z,23.73
2018-09-19T12:40:00.454Z,23.81
2018-09-19T12:44:54.101Z,23.78
2018-09-19T12:49:48.594Z,23.81
2018-09-19T12:54:41.785Z,23.79
2018-09-19T12:59:35.327Z,24.08
2018-09-19T13:04:31.556Z,23.90
2018-09-19T13:09:24.694Z,23.92
2018-09-19T13:14:18.934Z,24.06
2018-09-19T13:19:18.099Z,23.83
2018-09-19T13:24:11.939Z,23.91
2018-09-19T13:29:05.724Z,23.78
2018-09-19T13:33:59.589Z,23.71
2018-09-19T13:38:52.838Z,23.66
2018-09-19T13:43:46.732Z,23.83
2018-09-19T13:48:42.645Z,23.77
2018-09-19T13:53:36.431Z,23.66
2018-09-19T13:58:30.496Z,23.66
2018-09-19T14:03:24.541Z,23.66
2018-09-19T14:08:21.723Z,23.62
2018-09-19T14:13:16.336Z,23.57
2018-09-19T14:18:17.404Z,23.45
2018-09-19T14:23:13.655Z,23.52
2018-09-19T14:28:07.500Z,23.57
2018-09-19T14:33:05.678Z,23.38
2018-09-19T14:38:06.278Z,23.45
2018-09-19T14:43:02.123Z,23.31
2018-09-19T14:48:00.256Z,23.27
2018-09-19T14:52:55.217Z,23.14
2018-09-19T14:57:49.064Z,23.16
2018-09-19T15:02:42.375Z,22.97
2018-09-19T15:07:36.416Z,23.02
2018-09-19T15:12:30.531Z,22.83
2018-09-19T15:17:29.516Z,22.66
2018-09-19T15:22:27.041Z,22.70
2018-09-19T15:32:24.236Z,22.40
2018-09-19T15:37:22.236Z,22.18
2018-09-19T15:42:19.684Z,22.07
2018-09-19T15:47:13.808Z,21.88
2018-09-19T15:52:08.793Z,21.76
2018-09-19T15:57:04.308Z,21.61
2018-09-19T16:02:02.661Z,21.36
2018-09-19T16:06:57.566Z,21.33
2018-09-19T16:11:55.992Z,21.16
2018-09-19T16:16:49.359Z,20.99
2018-09-19T16:21:48.624Z,20.86
2018-09-19T16:26:41.965Z,20.85
2018-09-19T16:31:36.044Z,20.63
2018-09-19T16:36:29.966Z,20.53
2018-09-19T16:41:23.336Z,20.41
2018-09-19T16:46:18.107Z,20.27
2018-09-19T16:51:13.532Z,20.08
2018-09-19T16:56:06.739Z,20.01
2018-09-19T17:01:00.339Z,19.92
2018-09-19T17:05:54.775Z,19.89
2018-09-19T17:10:47.938Z,19.76
2018-09-19T17:15:43.143Z,19.64
2018-09-19T17:20:36.779Z,19.61
2018-09-19T17:25:30.414Z,19.50
2018-09-19T17:30:23.457Z,19.42
2018-09-19T17:35:18.766Z,19.33
2018-09-19T17:40:12.549Z,19.26
2018-09-19T17:45:05.707Z,19.16
2018-09-19T17:49:58.771Z,19.09
2018-09-19T17:54:52.943Z,18.98
2018-09-19T17:59:46.036Z,18.88
2018-09-19T18:04:40.039Z,18.82
2018-09-19T18:09:33.294Z,18.71
2018-09-19T18:14:26.362Z,18.70
2018-09-19T18:19:19.327Z,18.61
2018-09-19T18:24:12.639Z,18.61
2018-09-19T18:29:06.242Z,18.50
2018-09-19T18:33:59.566Z,18.34
2018-09-19T18:38:53.237Z,18.29
2018-09-19T18:43:46.565Z,18.26
2018-09-19T18:48:39.854Z,18.11
2018-09-19T18:53:33.064Z,17.84
2018-09-19T18:58:33.644Z,17.69
2018-09-19T19:03:27.095Z,17.33
2018-09-19T19:08:23.849Z,16.94
2018-09-19T19:13:17.130Z,16.74
2018-09-19T19:18:10.174Z,16.73
2018-09-19T19:23:03.768Z,16.60
2018-09-19T19:27:56.847Z,16.57
2018-09-19T19:32:49.947Z,16.52
2018-09-19T19:37:43.029Z,16.56
2018-09-19T19:42:36.525Z,16.42
2018-09-19T19:47:29.582Z,16.49
2018-09-19T19:52:22.656Z,16.44
2018-09-19T19:57:15.874Z,16.34
2018-09-19T20:02:09.183Z,16.06
2018-09-19T20:07:04.779Z,16.04
2018-09-19T20:11:57.932Z,16.00
2018-09-19T20:16:50.967Z,16.07
2018-09-19T20:21:44.073Z,16.08
2018-09-19T20:26:37.078Z,15.94
2018-09-19T20:31:30.130Z,15.85
2018-09-19T20:36:34.547Z,15.76
2018-09-19T20:41:30.905Z,15.74
2018-09-19T20:46:30.336Z,15.60
2018-09-19T21:01:36.659Z,15.57
2018-09-19T21:11:38.322Z,15.63
2018-09-19T21:21:52.059Z,15.32
2018-09-19T21:31:50.750Z,15.01
2018-09-19T21:36:43.780Z,15.01
2018-09-19T21:41:37.182Z,15.10
2018-09-19T21:46:30.366Z,14.84
2018-09-19T21:51:23.982Z,14.70
2018-09-19T21:56:17.176Z,14.73
2018-09-19T22:01:11.042Z,14.72
2018-09-19T22:06:04.165Z,14.79
2018-09-19T22:10:57.392Z,14.75
2018-09-19T22:15:50.368Z,14.59
2018-09-19T22:20:43.680Z,14.57
2018-09-19T22:25:36.618Z,14.64
2018-09-19T22:30:29.667Z,14.40
2018-09-19T22:35:22.675Z,14.43
2018-09-19T22:40:15.691Z,14.29
2018-09-19T22:45:08.735Z,14.20
2018-09-19T22:50:01.857Z,14.18
2018-09-19T22:54:54.895Z,14.10
2018-09-19T22:59:48.084Z,13.99
2018-09-19T23:04:41.191Z,13.94
2018-09-19T23:09:34.394Z,13.79
2018-09-19T23:14:27.459Z,13.75
2018-09-19T23:19:20.495Z,13.78
2018-09-19T23:24:13.558Z,13.64
2018-09-19T23:29:06.944Z,13.70
2018-09-19T23:34:00.096Z,13.75
2018-09-19T23:38:53.202Z,13.82
2018-09-19T23:43:46.259Z,13.78
2018-09-19T23:48:39.411Z,13.79
2018-09-19T23:53:32.474Z,13.79
2018-09-19T23:58:25.499Z,13.72
